createdAt,value
2023-03-30T00:02:05.288Z,8.96
2023-03-30T00:04:36.910Z,8.91
2023-03-30T00:07:06.278Z,8.82
2023-03-30T00:09:33.323Z,8.70
2023-03-30T00:12:03.820Z,8.73
2023-03-30T00:14:37.517Z,9.12
2023-03-30T00:17:05.078Z,9.08
2023-03-30T00:19:31.806Z,9.14
2023-03-30T00:21:59.607Z,9.32
2023-03-30T00:24:36.831Z,9.43
2023-03-30T00:27:04.159Z,9.45
2023-03-30T00:29:31.178Z,9.29
2023-03-30T00:32:05.778Z,9.32
2023-03-30T00:34:32.750Z,9.06
2023-03-30T00:37:03.217Z,9.16
2023-03-30T00:39:33.827Z,9.22
2023-03-30T00:42:03.807Z,9.16
2023-03-30T00:45:07.624Z,9.23
2023-03-30T00:47:42.183Z,9.25
2023-03-30T00:50:09.970Z,9.34
2023-03-30T00:52:37.483Z,9.15
2023-03-30T00:55:14.184Z,9.06
2023-03-30T00:57:43.389Z,8.90
2023-03-30T01:00:12.662Z,8.98
2023-03-30T01:02:53.457Z,8.93
2023-03-30T01:05:32.076Z,8.78
2023-03-30T01:07:58.866Z,8.62
2023-03-30T01:10:26.119Z,8.62
2023-03-30T01:12:52.931Z,8.63
2023-03-30T01:15:23.773Z,8.58
2023-03-30T01:18:15.787Z,8.72
2023-03-30T01:21:04.202Z,8.67
2023-03-30T01:23:53.048Z,8.49
2023-03-30T01:26:47.738Z,8.67
2023-03-30T01:29:21.016Z,8.82
2023-03-30T01:32:08.518Z,8.90
2023-03-30T01:34:53.856Z,8.88
2023-03-30T01:37:44.185Z,8.85
2023-03-30T01:40:20.532Z,9.21
2023-03-30T01:43:13.232Z,9.19
2023-03-30T01:45:55.919Z,9.38
2023-03-30T01:48:33.549Z,9.24
2023-03-30T01:51:06.815Z,9.19
2023-03-30T01:53:59.442Z,9.11
2023-03-30T01:56:29.291Z,9.26
2023-03-30T01:59:03.307Z,9.42
2023-03-30T02:01:33.351Z,9.37
2023-03-30T02:04:02.062Z,9.22
2023-03-30T02:06:38.946Z,9.41
2023-03-30T02:09:11.568Z,9.38
2023-03-30T02:11:49.277Z,9.39
2023-03-30T02:14:17.930Z,9.39
2023-03-30T02:16:49.781Z,9.56
2023-03-30T02:19:19.650Z,9.59
2023-03-30T02:21:48.048Z,9.85
2023-03-30T02:24:22.968Z,10.24
2023-03-30T02:26:51.771Z,10.29
2023-03-30T02:29:19.181Z,10.61
2023-03-30T02:31:47.194Z,10.60
2023-03-30T02:34:39.702Z,10.51
2023-03-30T02:37:46.473Z,10.50
2023-03-30T02:40:47.769Z,10.70
2023-03-30T02:43:44.914Z,10.64
2023-03-30T02:46:27.953Z,10.62
2023-03-30T02:49:46.746Z,10.55
2023-03-30T02:52:22.516Z,10.84
2023-03-30T02:54:55.714Z,10.83
2023-03-30T02:57:51.299Z,10.70
2023-03-30T03:00:50.711Z,10.68
2023-03-30T03:03:31.776Z,10.60
2023-03-30T03:06:02.570Z,10.49
2023-03-30T03:08:40.019Z,10.27
2023-03-30T03:11:11.612Z,10.11
2023-03-30T03:13:39.390Z,9.98
2023-03-30T03:16:10.089Z,9.95
2023-03-30T03:18:44.727Z,9.82
2023-03-30T03:21:16.085Z,9.94
2023-03-30T03:23:43.103Z,9.86
2023-03-30T03:26:18.692Z,9.83
2023-03-30T03:28:45.691Z,9.79
2023-03-30T03:31:14.096Z,9.91
2023-03-30T03:33:46.473Z,10.02
2023-03-30T03:36:22.885Z,10.13
2023-03-30T03:38:52.580Z,10.16
2023-03-30T03:41:19.351Z,10.40
2023-03-30T03:43:45.963Z,10.62
2023-03-30T03:46:15.142Z,10.55
2023-03-30T03:48:46.473Z,10.54
2023-03-30T03:51:13.310Z,10.57
2023-03-30T03:53:40.020Z,10.43
2023-03-30T03:56:16.815Z,10.33
2023-03-30T03:58:43.599Z,10.40
2023-03-30T04:01:14.463Z,10.61
2023-03-30T04:03:45.922Z,10.75
2023-03-30T04:06:15.854Z,10.58
2023-03-30T04:08:43.942Z,10.63
2023-03-30T04:11:22.730Z,10.48
2023-03-30T04:14:18.759Z,10.48
2023-03-30T04:17:08.638Z,10.61
2023-03-30T04:19:54.002Z,10.49
2023-03-30T04:22:57.240Z,10.54
2023-03-30T04:25:40.707Z,10.49
2023-03-30T04:28:24.274Z,10.60
2023-03-30T04:31:10.625Z,10.52
2023-03-30T04:34:02.670Z,10.18
2023-03-30T04:36:54.201Z,10.13
2023-03-30T04:39:23.822Z,10.13
2023-03-30T04:42:08.145Z,9.95
2023-03-30T04:44:51.847Z,10.11
2023-03-30T04:47:26.120Z,9.81
2023-03-30T04:50:16.157Z,9.80
2023-03-30T04:53:03.161Z,10.02
2023-03-30T04:55:51.161Z,9.74
2023-03-30T04:58:39.322Z,9.52
2023-03-30T05:01:24.854Z,9.38
2023-03-30T05:04:11.977Z,9.62
2023-03-30T05:06:54.115Z,9.52
2023-03-30T05:09:41.488Z,9.71
2023-03-30T05:12:26.776Z,9.81
2023-03-30T05:15:06.496Z,9.61
2023-03-30T05:18:02.340Z,9.43
2023-03-30T05:20:48.396Z,9.28
2023-03-30T05:23:51.180Z,9.30
2023-03-30T05:26:36.899Z,9.63
2023-03-30T05:29:35.712Z,9.72
2023-03-30T05:32:43.297Z,10.08
2023-03-30T05:35:30.959Z,10.45
2023-03-30T05:38:19.532Z,10.37
2023-03-30T05:41:54.905Z,10.71
2023-03-30T05:44:41.506Z,10.84
2023-03-30T05:47:32.000Z,10.71
2023-03-30T05:50:42.117Z,11.20
2023-03-30T05:53:17.937Z,11.29
2023-03-30T05:56:14.699Z,11.49
2023-03-30T05:58:55.568Z,11.75
2023-03-30T06:04:55.505Z,12.34
2023-03-30T06:10:07.534Z,12.28
2023-03-30T06:12:34.503Z,12.17
2023-03-30T06:15:05.226Z,12.15
2023-03-30T06:17:56.575Z,12.01
2023-03-30T06:20:34.786Z,12.41
2023-03-30T06:23:01.994Z,12.32
2023-03-30T06:25:30.209Z,12.36
2023-03-30T06:28:00.151Z,12.16
2023-03-30T06:30:27.375Z,12.07
2023-03-30T06:32:57.443Z,12.04
2023-03-30T06:35:32.899Z,12.14
2023-03-30T06:38:00.604Z,12.16
2023-03-30T06:40:27.484Z,12.02
2023-03-30T06:42:55.758Z,12.27
2023-03-30T06:45:43.237Z,12.16
2023-03-30T06:48:10.037Z,12.21
2023-03-30T06:50:40.652Z,12.12
2023-03-30T06:53:17.621Z,12.03
2023-03-30T06:55:52.019Z,11.94
2023-03-30T06:58:19.128Z,11.81
2023-03-30T07:00:49.537Z,11.85
2023-03-30T07:03:54.682Z,11.88
2023-03-30T07:06:27.903Z,12.23
2023-03-30T07:08:55.985Z,12.31
2023-03-30T07:11:26.224Z,12.40
2023-03-30T07:13:56.269Z,12.50
2023-03-30T07:16:22.970Z,12.62
2023-03-30T07:18:49.811Z,12.81
2023-03-30T07:21:19.707Z,12.85
2023-03-30T07:23:47.562Z,13.10
2023-03-30T07:26:25.480Z,13.40
2023-03-30T07:28:58.518Z,13.47
2023-03-30T07:31:25.856Z,13.18
2023-03-30T07:33:53.110Z,13.08
2023-03-30T07:36:24.226Z,13.12
2023-03-30T07:38:52.109Z,13.15
2023-03-30T07:41:19.729Z,13.31
2023-03-30T07:43:50.213Z,13.37
2023-03-30T07:46:17.153Z,13.18
2023-03-30T07:48:47.296Z,13.09
2023-03-30T07:51:14.892Z,13.38
2023-03-30T07:54:06.782Z,13.60
2023-03-30T07:56:52.780Z,13.58
2023-03-30T07:59:20.865Z,13.72
2023-03-30T08:01:50.344Z,13.85
2023-03-30T08:04:37.067Z,13.89
2023-03-30T08:07:04.639Z,14.08
2023-03-30T08:09:32.877Z,13.90
2023-03-30T08:12:07.246Z,14.09
2023-03-30T08:14:37.360Z,14.03
2023-03-30T08:17:07.746Z,14.13
2023-03-30T08:19:34.454Z,14.08
2023-03-30T08:22:08.548Z,14.45
2023-03-30T08:24:35.168Z,14.21
2023-03-30T08:27:04.896Z,14.02
2023-03-30T08:29:39.565Z,14.01
2023-03-30T08:32:07.020Z,13.81
2023-03-30T08:34:37.300Z,13.87
2023-03-30T08:37:13.204Z,13.60
2023-03-30T08:39:39.970Z,13.65
2023-03-30T08:42:17.549Z,13.56
2023-03-30T08:44:46.732Z,13.72
2023-03-30T08:47:16.578Z,13.84
2023-03-30T08:49:53.246Z,14.07
2023-03-30T08:52:43.481Z,14.19
2023-03-30T08:56:19.130Z,14.27
2023-03-30T08:58:51.870Z,13.73
2023-03-30T09:01:19.717Z,13.84
2023-03-30T09:05:27.477Z,13.81
2023-03-30T09:08:03.143Z,13.96
2023-03-30T09:10:41.466Z,14.05
2023-03-30T09:13:10.850Z,13.90
2023-03-30T09:16:02.683Z,14.08
2023-03-30T09:18:37.576Z,13.94
2023-03-30T09:21:06.436Z,14.24
2023-03-30T09:23:36.277Z,13.79
2023-03-30T09:26:08.894Z,14.02
2023-03-30T09:28:49.984Z,13.88
2023-03-30T09:31:38.047Z,13.72
2023-03-30T09:34:08.981Z,13.44
2023-03-30T09:36:44.253Z,13.39
2023-03-30T09:39:21.404Z,13.03
2023-03-30T09:42:03.423Z,12.52
2023-03-30T09:44:37.961Z,12.38
2023-03-30T09:47:22.896Z,12.33
2023-03-30T09:49:56.380Z,12.28
2023-03-30T09:52:25.474Z,12.10
2023-03-30T09:54:52.448Z,12.20
2023-03-30T09:57:26.400Z,12.05
2023-03-30T09:59:56.060Z,11.80
2023-03-30T10:02:25.484Z,11.66
2023-03-30T10:04:58.559Z,11.57
2023-03-30T10:07:34.352Z,11.66
2023-03-30T10:10:13.230Z,11.95
2023-03-30T10:12:39.884Z,11.82
2023-03-30T10:15:07.863Z,11.98
2023-03-30T10:17:35.152Z,11.78
2023-03-30T10:20:29.699Z,12.17
2023-03-30T10:23:02.673Z,12.27
2023-03-30T10:25:31.584Z,12.52
2023-03-30T10:28:02.810Z,13.12
2023-03-30T10:30:44.149Z,13.09
2023-03-30T10:33:11.212Z,13.22
2023-03-30T10:35:38.450Z,13.25
2023-03-30T10:38:15.162Z,13.54
2023-03-30T10:40:44.195Z,13.36
2023-03-30T10:43:26.478Z,13.29
2023-03-30T10:46:18.375Z,13.01
2023-03-30T10:49:17.004Z,13.37
2023-03-30T10:52:30.584Z,13.50
2023-03-30T10:55:15.113Z,14.09
2023-03-30T10:58:00.043Z,14.25
2023-03-30T11:00:32.376Z,13.81
2023-03-30T11:03:15.049Z,13.88
2023-03-30T11:05:45.834Z,14.72
2023-03-30T11:08:16.197Z,14.81
2023-03-30T11:10:48.336Z,14.26
2023-03-30T11:13:27.884Z,14.56
2023-03-30T11:15:54.698Z,14.60
2023-03-30T11:19:09.484Z,14.49
2023-03-30T11:22:08.139Z,15.38
2023-03-30T11:24:39.767Z,15.50
2023-03-30T11:27:36.977Z,15.40
2023-03-30T11:30:28.403Z,15.20
2023-03-30T11:33:07.378Z,15.16
2023-03-30T11:35:41.849Z,14.66
2023-03-30T11:39:00.218Z,14.50
2023-03-30T11:41:42.047Z,14.58
2023-03-30T11:44:11.232Z,14.65
2023-03-30T11:46:52.264Z,14.65
2023-03-30T11:49:52.424Z,14.87
2023-03-30T11:56:56.490Z,14.69
2023-03-30T11:59:39.686Z,14.84
2023-03-30T12:02:36.116Z,14.84
2023-03-30T12:05:27.652Z,14.71
2023-03-30T12:08:09.485Z,14.49
2023-03-30T12:10:42.668Z,14.51
2023-03-30T12:13:48.376Z,14.65
2023-03-30T12:17:27.972Z,14.51
2023-03-30T12:33:03.993Z,13.91
2023-03-30T12:36:01.337Z,14.47
2023-03-30T12:38:48.724Z,14.53
2023-03-30T12:41:18.505Z,14.42
2023-03-30T12:44:39.121Z,14.93
2023-03-30T12:47:35.838Z,15.35
2023-03-30T12:50:24.652Z,14.84
2023-03-30T12:53:29.604Z,14.00
2023-03-30T12:56:17.750Z,13.90
2023-03-30T12:59:22.748Z,13.70
2023-03-30T13:02:17.457Z,13.84
2023-03-30T13:04:46.825Z,13.69
2023-03-30T13:07:25.494Z,13.88
2023-03-30T13:09:55.480Z,14.33
2023-03-30T13:12:38.871Z,13.94
2023-03-30T13:15:26.200Z,13.63
2023-03-30T13:17:56.055Z,13.45
2023-03-30T13:20:32.971Z,13.34
2023-03-30T13:23:13.489Z,13.56
2023-03-30T13:25:45.727Z,13.70
2023-03-30T13:28:48.894Z,13.72
2023-03-30T13:31:15.985Z,13.44
2023-03-30T13:33:57.432Z,13.38
2023-03-30T13:36:30.730Z,13.47
2023-03-30T13:39:13.841Z,13.55
2023-03-30T13:41:59.660Z,13.37
2023-03-30T13:44:56.762Z,13.44
2023-03-30T13:47:57.472Z,13.26
2023-03-30T13:50:29.331Z,13.23
2023-03-30T13:53:14.601Z,13.43
2023-03-30T13:55:54.368Z,13.33
2023-03-30T13:58:24.567Z,13.66
2023-03-30T14:00:57.493Z,13.70
2023-03-30T14:04:05.728Z,14.09
2023-03-30T14:06:38.575Z,14.38
2023-03-30T14:09:08.299Z,14.69
2023-03-30T14:11:44.795Z,14.82
2023-03-30T14:14:23.339Z,15.10
2023-03-30T14:16:51.502Z,15.11
2023-03-30T14:19:36.867Z,15.01
2023-03-30T14:22:15.231Z,14.74
2023-03-30T14:25:27.252Z,14.55
2023-03-30T14:27:58.981Z,14.08
2023-03-30T14:30:55.141Z,13.88
2023-03-30T14:33:22.572Z,13.43
2023-03-30T14:35:59.622Z,12.60
2023-03-30T14:38:30.358Z,12.42
2023-03-30T14:40:57.309Z,12.39
2023-03-30T14:43:31.722Z,12.32
2023-03-30T14:46:03.110Z,12.41
2023-03-30T14:48:35.884Z,12.56
2023-03-30T14:51:04.589Z,12.84
2023-03-30T14:53:31.492Z,13.32
2023-03-30T14:56:00.756Z,13.50
2023-03-30T14:58:31.558Z,13.57
2023-03-30T15:01:00.764Z,13.67
2023-03-30T15:03:34.522Z,13.57
2023-03-30T15:06:02.979Z,13.97
2023-03-30T15:08:36.665Z,14.06
2023-03-30T15:11:37.460Z,14.22
2023-03-30T15:14:35.584Z,14.12
2023-03-30T15:17:14.160Z,13.92
2023-03-30T15:19:41.578Z,13.92
2023-03-30T15:22:24.468Z,13.62
2023-03-30T15:24:54.838Z,13.47
2023-03-30T15:27:22.318Z,13.45
2023-03-30T15:30:00.430Z,13.68
2023-03-30T15:32:57.871Z,13.55
2023-03-30T15:35:34.414Z,13.78
2023-03-30T15:38:14.369Z,13.83
2023-03-30T15:41:03.173Z,13.82
2023-03-30T15:43:53.709Z,13.29
2023-03-30T15:46:24.659Z,13.21
2023-03-30T15:48:53.597Z,13.18
2023-03-30T15:51:30.528Z,13.08
2023-03-30T15:54:03.142Z,13.13
2023-03-30T15:56:39.548Z,12.78
2023-03-30T15:59:15.680Z,12.66
2023-03-30T16:01:52.851Z,12.56
2023-03-30T16:04:22.447Z,12.69
2023-03-30T16:06:52.800Z,12.60
2023-03-30T16:09:19.786Z,12.46
2023-03-30T16:11:46.857Z,12.24
2023-03-30T16:14:26.553Z,12.07
2023-03-30T16:16:53.311Z,12.15
2023-03-30T16:19:20.254Z,11.91
2023-03-30T16:21:53.330Z,11.87
2023-03-30T16:24:20.362Z,11.81
2023-03-30T16:26:49.832Z,11.75
2023-03-30T16:29:39.889Z,11.74
2023-03-30T16:32:06.919Z,11.52
2023-03-30T16:34:37.027Z,11.58
2023-03-30T16:37:07.078Z,11.65
2023-03-30T16:39:43.039Z,11.54
2023-03-30T16:42:09.786Z,11.76
2023-03-30T16:44:36.512Z,11.75
2023-03-30T16:47:09.002Z,12.15
2023-03-30T16:49:39.480Z,12.07
2023-03-30T16:52:08.808Z,12.19
2023-03-30T16:54:38.403Z,12.16
2023-03-30T16:57:10.230Z,12.28
2023-03-30T16:59:38.104Z,12.22
2023-03-30T17:02:29.777Z,12.05
2023-03-30T17:04:56.539Z,12.07
2023-03-30T17:07:23.384Z,11.95
2023-03-30T17:09:50.098Z,12.02
2023-03-30T17:12:16.767Z,12.01
2023-03-30T17:14:43.458Z,11.92
2023-03-30T17:17:14.981Z,11.77
2023-03-30T17:19:42.230Z,11.73
2023-03-30T17:22:08.922Z,11.85
2023-03-30T17:24:45.002Z,11.67
2023-03-30T17:27:13.627Z,11.66
2023-03-30T17:29:40.997Z,11.69
2023-03-30T17:32:13.802Z,11.70
2023-03-30T17:34:40.621Z,11.55
2023-03-30T17:37:08.783Z,11.52
2023-03-30T17:39:44.551Z,11.54
2023-03-30T17:42:13.745Z,11.61
2023-03-30T17:44:40.526Z,11.57
2023-03-30T17:47:16.700Z,11.61
2023-03-30T17:49:43.424Z,11.70
2023-03-30T17:52:10.633Z,11.70
2023-03-30T17:54:50.672Z,11.52
2023-03-30T17:57:17.391Z,11.55
2023-03-30T17:59:44.137Z,11.46
2023-03-30T18:02:20.947Z,11.47
2023-03-30T18:04:51.479Z,11.26
2023-03-30T18:07:18.255Z,11.41
2023-03-30T18:09:54.425Z,11.26
2023-03-30T18:12:21.502Z,11.16
2023-03-30T18:14:48.540Z,11.15
2023-03-30T18:17:24.615Z,11.15
2023-03-30T18:19:54.148Z,10.99
2023-03-30T18:22:20.953Z,10.86
2023-03-30T18:24:55.669Z,10.74
2023-03-30T18:27:22.573Z,10.77
2023-03-30T18:29:49.535Z,10.67
2023-03-30T18:32:29.134Z,10.61
2023-03-30T18:35:09.964Z,10.61
2023-03-30T18:37:36.615Z,10.56
2023-03-30T18:40:07.087Z,10.43
2023-03-30T18:42:45.639Z,10.43
2023-03-30T18:45:26.535Z,10.48
2023-03-30T18:47:56.742Z,10.51
2023-03-30T18:50:29.396Z,10.40
2023-03-30T18:52:57.162Z,10.31
2023-03-30T18:55:27.344Z,10.12
2023-03-30T18:57:58.098Z,9.96
2023-03-30T19:00:29.700Z,9.86
2023-03-30T19:02:57.351Z,9.96
2023-03-30T19:05:30.755Z,10.08
2023-03-30T19:07:57.700Z,9.95
2023-03-30T19:10:29.574Z,10.05
2023-03-30T19:12:56.873Z,10.12
2023-03-30T19:15:33.135Z,10.10
2023-03-30T19:18:01.182Z,10.09
2023-03-30T19:20:29.573Z,10.22
2023-03-30T19:23:04.652Z,10.17
2023-03-30T19:25:32.141Z,10.18
2023-03-30T19:28:03.863Z,10.14
2023-03-30T19:30:36.775Z,10.13
2023-03-30T19:33:19.865Z,10.17
2023-03-30T19:35:46.963Z,10.15
2023-03-30T19:38:17.717Z,10.12
2023-03-30T19:40:46.968Z,10.19
2023-03-30T19:43:13.824Z,10.12
2023-03-30T19:45:40.714Z,10.01
2023-03-30T19:48:15.008Z,10.02
2023-03-30T19:50:41.750Z,10.11
2023-03-30T19:53:10.977Z,10.12
2023-03-30T19:55:46.759Z,10.04
2023-03-30T19:58:13.693Z,10.13
2023-03-30T20:00:43.570Z,9.99
2023-03-30T20:03:19.447Z,9.96
2023-03-30T20:05:50.664Z,9.88
2023-03-30T20:08:24.262Z,10.01
2023-03-30T20:10:58.857Z,9.90
2023-03-30T20:13:33.824Z,9.82
2023-03-30T20:16:02.609Z,9.81
2023-03-30T20:18:31.468Z,9.87
2023-03-30T20:21:03.956Z,9.81
2023-03-30T20:23:35.547Z,9.81
2023-03-30T20:26:09.280Z,9.74
2023-03-30T20:28:36.340Z,9.71
2023-03-30T20:31:03.589Z,9.69
2023-03-30T20:33:33.432Z,9.57
2023-03-30T20:36:05.536Z,9.54
2023-03-30T20:38:32.722Z,9.47
2023-03-30T20:41:15.688Z,9.52
2023-03-30T20:43:57.293Z,9.55
2023-03-30T20:46:26.180Z,9.52
2023-03-30T20:49:12.352Z,9.30
2023-03-30T20:51:50.094Z,9.38
2023-03-30T20:54:21.847Z,9.53
2023-03-30T20:56:48.758Z,9.52
2023-03-30T20:59:22.634Z,9.52
2023-03-30T21:01:52.273Z,9.48
2023-03-30T21:04:19.684Z,9.45
2023-03-30T21:07:12.245Z,9.53
2023-03-30T21:09:45.471Z,9.46
2023-03-30T21:12:21.491Z,9.42
2023-03-30T21:14:50.667Z,9.46
2023-03-30T21:17:17.448Z,9.45
2023-03-30T21:19:52.055Z,9.66
2023-03-30T21:22:18.902Z,9.65
2023-03-30T21:24:47.832Z,9.55
2023-03-30T21:27:24.739Z,9.44
2023-03-30T21:29:51.701Z,9.35
2023-03-30T21:32:18.741Z,9.36
2023-03-30T21:34:54.811Z,9.21
2023-03-30T21:37:38.724Z,9.25
2023-03-30T21:40:18.031Z,9.24
2023-03-30T21:45:33.117Z,9.34
2023-03-30T21:47:59.876Z,9.58
2023-03-30T21:50:57.152Z,9.51
2023-03-30T21:53:25.137Z,9.60
2023-03-30T21:56:04.470Z,9.69
2023-03-30T21:58:34.857Z,9.76
2023-03-30T22:01:31.084Z,9.71
2023-03-30T22:04:00.050Z,9.76
2023-03-30T22:06:33.633Z,9.70
2023-03-30T22:09:03.639Z,9.78
2023-03-30T22:11:32.829Z,9.70
2023-03-30T22:14:03.831Z,9.71
2023-03-30T22:16:36.793Z,9.77
2023-03-30T22:19:04.664Z,9.80
2023-03-30T22:21:35.722Z,9.73
2023-03-30T22:24:07.373Z,9.78
2023-03-30T22:26:50.574Z,9.84
2023-03-30T22:29:39.549Z,9.73
2023-03-30T22:32:35.964Z,9.69
2023-03-30T22:35:02.926Z,9.79
2023-03-30T22:37:47.504Z,9.70
2023-03-30T22:40:16.866Z,9.69
2023-03-30T22:42:45.310Z,9.75
2023-03-30T22:45:16.668Z,9.88
2023-03-30T22:50:42.816Z,9.84
2023-03-30T22:53:13.671Z,9.71
2023-03-30T22:55:42.818Z,9.70
2023-03-30T22:58:13.015Z,9.73
2023-03-30T23:03:53.180Z,9.87
2023-03-30T23:06:27.525Z,9.96
2023-03-30T23:11:56.635Z,9.62
2023-03-30T23:14:39.581Z,9.58
2023-03-30T23:17:18.978Z,9.44
2023-03-30T23:19:51.073Z,9.38
2023-03-30T23:22:31.299Z,9.19
2023-03-30T23:25:00.437Z,9.35
2023-03-30T23:31:06.440Z,9.26
2023-03-30T23:33:07.587Z,9.13
2023-03-30T23:35:48.573Z,9.20
2023-03-30T23:38:18.297Z,9.07
2023-03-30T23:40:52.453Z,8.94
2023-03-30T23:43:22.260Z,8.83
2023-03-30T23:46:20.090Z,8.73
2023-03-30T23:48:50.377Z,8.66
2023-03-30T23:51:34.004Z,8.64
2023-03-30T23:54:27.128Z,8.67
